Home   Weather   France   Bordeaux   Past weeks
Flag for France

Past Weather in Bordeaux, Gironde, France — Yesterday and Last 2 Weeks

Currently: 66 °F. Clear. (Weather station: Bordeaux / Merignac, France). See more current weather

Past Weather in Bordeaux — Graph

°F

Bordeaux Temperature Yesterday

Maximum temperature yesterday: 91 °F (at 5:00 pm)
Minimum temperature yesterday: 64 °F (at 6:30 am)
Average temperature yesterday: 78 °F

High & Low Weather Summary for the Past Weeks

 TemperatureHumidityPressure
High100 °F (Aug 3, 3:30 pm)100% (Jul 30, 5:30 am)30.18 "Hg (Jul 30, 5:30 am)
Low55 °F (Jul 27, 6:30 am)18% (Aug 3, 3:30 pm)29.86 "Hg (Aug 3, 6:00 pm)
Average75 °F60%30.05 "Hg
* Reported Jul 24 5:00 am — Aug 8 5:00 am, Bordeaux. Weather by CustomWeather, © 2022

Note: Actual official high and low records may vary slightly from our data, if they occured in-between our weather recording intervals... More about our weather records

Bordeaux Weather History for the Previous 24 Hours

Scroll right to see more
 ConditionsComfort  
Time TempWeatherWind HumidityBarometerVisibility
5:00 am
Mon, Aug 8
68 °FClear.5 mph43%30.04 "Hg10 mi
4:30 am68 °FPassing clouds.6 mph43%30.04 "HgN/A
4:00 am70 °FClear.6 mph40%30.04 "Hg10 mi
3:30 am70 °FClear.5 mph40%30.04 "Hg10 mi
3:00 am72 °FClear.7 mph38%30.04 "Hg10 mi
1:00 am75 °FClear.9 mph34%30.04 "Hg10 mi
12:30 am77 °FClear.10 mph34%30.04 "Hg10 mi
12:00 am77 °FClear.10 mph32%30.04 "Hg10 mi
11:30 pm
Sun, Aug 7
79 °FClear.10 mph30%30.04 "Hg10 mi
11:00 pm79 °FClear.9 mph30%30.04 "Hg10 mi
10:00 pm82 °FClear.10 mph28%30.04 "Hg10 mi
9:30 pm84 °FClear.12 mph29%30.01 "Hg10 mi
9:00 pm86 °FSunny.13 mph29%30.01 "Hg10 mi
8:30 pm86 °FSunny.14 mph29%29.98 "Hg10 mi
8:00 pm88 °FSunny.15 mph27%29.98 "Hg10 mi
7:00 pm91 °FSunny.12 mph24%29.98 "Hg10 mi
6:30 pm91 °FPassing clouds.12 mph24%29.98 "HgN/A
6:00 pm91 °FPassing clouds.8 mph23%29.98 "HgN/A
5:30 pm91 °FPassing clouds.9 mph24%29.98 "HgN/A
5:00 pm91 °FPassing clouds.10 mph24%29.98 "HgN/A
4:00 pm90 °FPassing clouds.12 mph26%30.01 "HgN/A
3:30 pm88 °FPassing clouds.7 mph27%30.04 "HgN/A
3:00 pm86 °FPassing clouds.7 mph29%30.04 "HgN/A
2:30 pm86 °FPassing clouds.7 mph29%30.04 "HgN/A
2:00 pm84 °FPassing clouds.8 mph31%30.04 "HgN/A
1:00 pm81 °FSunny.6 mph32%30.07 "Hg10 mi
12:30 pm79 °FPassing clouds.7 mph34%30.07 "HgN/A
12:00 pm79 °FPassing clouds.8 mph34%30.07 "HgN/A
11:30 am77 °FPassing clouds.6 mph34%30.07 "HgN/A
11:00 am73 °FPassing clouds.6 mph38%30.07 "HgN/A
10:00 am70 °FPassing clouds.8 mph40%30.09 "HgN/A
9:30 am70 °FSunny.10 mph40%30.09 "Hg10 mi
9:00 am68 °FPassing clouds.9 mph43%30.09 "HgN/A
8:30 am68 °FSunny.10 mph43%30.09 "Hg10 mi
8:00 am66 °FSunny.6 mph46%30.09 "Hg10 mi
7:00 am64 °FPassing clouds.7 mph49%30.07 "HgN/A
6:30 am64 °FClear.7 mph52%30.07 "Hg10 mi
6:00 am66 °FClear.8 mph49%30.07 "Hg10 mi
Weather by CustomWeather, © 2022

See weather overview